Time,TemperatureF,DewpointF,PressureIn,WindDirection,WindDirectionDegrees,WindSpeedMPH,WindSpeedGustMPH,Humidity,HourlyPrecipIn,Conditions,Clouds,dailyrainin,SoftwareType,DateUTC
2017-11-21 00:01:00,43.4,14.0,30.10,ESE,108,4.0,5.0,31,0.00,,,0.00,weatherlink.com 1.10,2017-11-21 08:01:00,
2017-11-21 00:16:00,43.6,14.0,30.10,SSE,155,0.0,4.0,30,0.00,,,0.00,weatherlink.com 1.10,2017-11-21 08:16:00,
2017-11-21 00:31:00,42.5,14.0,30.09,SE,129,1.0,3.0,31,0.00,,,0.00,weatherlink.com 1.10,2017-11-21 08:31:00,
2017-11-21 00:46:00,43.7,15.0,30.09,ESE,111,1.0,3.0,31,0.00,,,0.00,weatherlink.com 1.10,2017-11-21 08:46:00,
2017-11-21 01:16:00,42.7,15.0,30.10,SE,131,1.0,2.0,32,0.00,,,0.00,weatherlink.com 1.10,2017-11-21 09:16:00,
2017-11-21 02:16:00,42.0,15.0,30.11,SSE,153,1.0,3.0,34,0.00,,,0.00,weatherlink.com 1.10,2017-11-21 10:16:00,
2017-11-21 02:46:00,40.8,17.0,30.11,SSE,161,2.0,2.0,39,0.00,,,0.00,weatherlink.com 1.10,2017-11-21 10:46:00,
2017-11-21 03:01:00,41.2,18.0,30.12,ESE,117,0.0,2.0,40,0.00,,,0.00,weatherlink.com 1.10,2017-11-21 11:01:00,
2017-11-21 03:16:00,37.8,14.0,30.12,East,95,0.0,1.0,38,0.00,,,0.00,weatherlink.com 1.10,2017-11-21 11:16:00,
2017-11-21 03:31:00,37.4,14.0,30.12,East,94,0.0,0.0,39,0.00,,,0.00,weatherlink.com 1.10,2017-11-21 11:31:00,
2017-11-21 03:46:00,37.1,15.0,30.12,ESE,102,0.0,1.0,40,0.00,,,0.00,weatherlink.com 1.10,2017-11-21 11:46:00,
2017-11-21 04:02:00,37.9,14.0,30.12,East,87,0.0,0.0,38,0.00,,,0.00,weatherlink.com 1.10,2017-11-21 12:02:00,
2017-11-21 04:17:00,37.5,14.0,30.13,ESE,112,0.0,1.0,38,0.00,,,0.00,weatherlink.com 1.10,2017-11-21 12:17:00,
2017-11-21 04:32:00,37.2,14.0,30.13,East,93,0.0,1.0,38,0.00,,,0.00,weatherlink.com 1.10,2017-11-21 12:32:00,
2017-11-21 04:47:00,37.1,14.0,30.12,ESE,121,0.0,1.0,39,0.00,,,0.00,weatherlink.com 1.10,2017-11-21 12:47:00,
2017-11-21 05:02:00,36.4,13.0,30.12,ESE,111,0.0,1.0,38,0.00,,,0.00,weatherlink.com 1.10,2017-11-21 13:02:00,
2017-11-21 05:17:00,35.8,14.0,30.14,ESE,112,0.0,1.0,40,0.00,,,0.00,weatherlink.com 1.10,2017-11-21 13:17:00,
2017-11-21 05:32:00,35.5,14.0,30.14,SE,127,1.0,1.0,41,0.00,,,0.00,weatherlink.com 1.10,2017-11-21 13:32:00,
2017-11-21 05:47:00,35.4,14.0,30.23,SSE,150,0.0,1.0,41,0.00,,,0.00,weatherlink.com 1.10,2017-11-21 13:47:00,
2017-11-21 06:02:00,35.5,13.0,30.15,SSE,158,4.0,4.0,40,0.00,,,0.00,weatherlink.com 1.10,2017-11-21 14:02:00,
2017-11-21 06:17:00,35.1,14.0,30.16,SE,141,0.0,2.0,42,0.00,,,0.00,weatherlink.com 1.10,2017-11-21 14:17:00,
2017-11-21 06:47:00,35.9,16.0,30.17,East,89,0.0,1.0,44,0.00,,,0.00,weatherlink.com 1.10,2017-11-21 14:47:00,
2017-11-21 07:02:00,38.8,16.0,30.17,East,90,0.0,2.0,40,0.00,,,0.00,weatherlink.com 1.10,2017-11-21 15:02:00,
2017-11-21 07:32:00,44.7,19.0,30.18,SE,141,1.0,3.0,36,0.00,,,0.00,weatherlink.com 1.10,2017-11-21 15:32:00,
2017-11-21 07:47:00,46.8,20.0,30.19,SE,141,1.0,2.0,34,0.00,,,0.00,weatherlink.com 1.10,2017-11-21 15:47:00,
2017-11-21 08:02:00,49.0,21.0,30.19,ESE,122,0.0,2.0,33,0.00,,,0.00,weatherlink.com 1.10,2017-11-21 16:02:00,
2017-11-21 08:17:00,51.1,23.0,30.20,SE,140,0.0,1.0,33,0.00,,,0.00,weatherlink.com 1.10,2017-11-21 16:17:00,
2017-11-21 08:47:00,56.6,24.0,30.20,South,190,0.0,1.0,28,0.00,,,0.00,weatherlink.com 1.10,2017-11-21 16:47:00,